Goodtime II — WCW5448 — position and weather

sailwx.info

Track history (hours):
 
Tides and Currents Weather Stations Pressure Air Temp Water Temp Dewpoint Dewpoint Depression Visibility Wind Speed Wind Dir Waves Ship Positions

Goodtime II

Owner: Argosy Limited Partnership, SEATTLE, WA. More information available from US FCC via Universal Licensing System and Coast Guard Vessel Documentation Center.

Last reported at 2018-Apr-23 20:59 UTC. Time now 2018-Apr-23 21:27 UTC.
Position N 47°36' W 122°20'.

Length 25 m; draft 2 m.

Type: Passenger vessel. MMSI: 367013040.

Date/timePositionNaut miles runAvg speedWind from/ knotsBaromVisibWave heightAir tempDewpointWater temp
2018-Apr-23 20:59N 47°36' W 122°20'0 0.0
2018-Apr-23 20:29N 47°36' W 122°20'0 0.0
2018-Apr-23 19:59N 47°36' W 122°20'0 0.0
2018-Apr-23 19:30N 47°36' W 122°20'0 0.0
2018-Apr-23 19:00N 47°36' W 122°20'0 0.0
2018-Apr-23 18:30N 47°36' W 122°20'0 0.0
2018-Apr-23 18:00N 47°36' W 122°20'0 0.0
2018-Apr-23 17:28N 47°36' W 122°20'0 0.0
2018-Apr-23 16:58N 47°36' W 122°20'0 0.0
2018-Apr-23 15:41N 47°36' W 122°20'0 0.0
2018-Apr-23 15:29N 47°36' W 122°20'0 0.0
2018-Apr-23 14:59N 47°36' W 122°20'0 0.0
2018-Apr-23 14:27N 47°36' W 122°20'0 0.0
2018-Apr-23 14:00N 47°36' W 122°20'0 0.0
2018-Apr-23 13:10N 47°36' W 122°20'0 0.0
2018-Apr-23 12:58N 47°36' W 122°20'0 0.0
2018-Apr-23 12:28N 47°36' W 122°20'0 0.0
2018-Apr-23 11:58N 47°36' W 122°20'0 0.0
2018-Apr-23 11:29N 47°36' W 122°20'0 0.0
2018-Apr-23 10:53N 47°36' W 122°20'0 0.0
2018-Apr-23 10:29N 47°36' W 122°20'0 0.0
2018-Apr-23 10:00N 47°36' W 122°20'0 0.0
2018-Apr-23 09:30N 47°36' W 122°20'0 0.0
2018-Apr-23 09:00N 47°36' W 122°20'0 0.0
2018-Apr-23 08:28N 47°36' W 122°20'0 0.0
2018-Apr-23 07:58N 47°36' W 122°20'0 0.0
2018-Apr-23 07:28N 47°36' W 122°20'0 0.0
2018-Apr-23 06:59N 47°36' W 122°20'0 0.0
2018-Apr-23 06:29N 47°36' W 122°20'0 0.0
2018-Apr-23 05:59N 47°36' W 122°20'0 0.0
2018-Apr-23 05:30N 47°36' W 122°20'0 0.0
2018-Apr-23 04:57N 47°36' W 122°20'0 0.0
2018-Apr-23 04:28N 47°36' W 122°20'0 0.0
2018-Apr-23 03:58N 47°36' W 122°20'0 0.0
2018-Apr-23 03:25N 47°36' W 122°20'0 0.0
2018-Apr-23 02:58N 47°36' W 122°20'0 0.0
2018-Apr-23 02:29N 47°36' W 122°20'0 0.0
2018-Apr-23 01:59N 47°36' W 122°20'0 0.0
2018-Apr-23 01:24N 47°36' W 122°20'0 0.0
2018-Apr-23 00:54N 47°36' W 122°20'0 0.0
2018-Apr-23 00:27N 47°36' W 122°20'0 0.0
2018-Apr-23 00:00N 47°36' W 122°20'0 0.0
2018-Apr-22 23:25N 47°36' W 122°20'0 0.0
2018-Apr-22 22:55N 47°36' W 122°20'0 0.3
2018-Apr-22 22:30N 47°36' W 122°21'510.1
2018-Apr-22 22:00N 47°34' W 122°27'2 3.5
2018-Apr-22 21:30N 47°33' W 122°29'0 0.0
2018-Apr-22 20:58N 47°33' W 122°29'0 0.0
2018-Apr-22 20:28N 47°33' W 122°29'0 0.0
2018-Apr-22 19:58N 47°33' W 122°29'0 0.0
2018-Apr-22 19:29N 47°33' W 122°29'3 6.8
2018-Apr-22 19:00N 47°35' W 122°25'4 7.4
2018-Apr-22 18:30N 47°36' W 122°20'0 0.0
2018-Apr-22 17:58N 47°36' W 122°20'1 1.9
2018-Apr-22 17:30N 47°36' W 122°22'510.2
2018-Apr-22 17:00N 47°33' W 122°28'1 2.1
2018-Apr-22 16:30N 47°34' W 122°27'5 9.5
2018-Apr-22 16:00N 47°36' W 122°20'0 0.0
2018-Apr-22 15:30N 47°36' W 122°20'0 0.0
2018-Apr-22 15:00N 47°36' W 122°20'0 0.0
2018-Apr-22 14:28N 47°36' W 122°20'0 0.0
2018-Apr-22 13:52N 47°36' W 122°20'0 0.0
2018-Apr-22 13:28N 47°36' W 122°20'0 0.0
2018-Apr-22 12:59N 47°36' W 122°20'0 0.0
2018-Apr-22 12:29N 47°36' W 122°20'0 0.0
2018-Apr-22 11:59N 47°36' W 122°20'0 0.0
2018-Apr-22 11:30N 47°36' W 122°20'0 0.0
2018-Apr-22 11:00N 47°36' W 122°20'0 0.0
2018-Apr-22 10:30N 47°36' W 122°20'0 0.0
2018-Apr-22 09:55N 47°36' W 122°20'0 0.0
2018-Apr-22 09:28N 47°36' W 122°20'0 0.0
2018-Apr-22 08:58N 47°36' W 122°20'0 0.0
2018-Apr-22 08:29N 47°36' W 122°20'0 0.0
2018-Apr-22 07:59N 47°36' W 122°20'0 0.0
2018-Apr-22 07:29N 47°36' W 122°20'0 0.0
2018-Apr-22 07:00N 47°36' W 122°20'0 0.0
2018-Apr-22 06:27N 47°36' W 122°20'0 0.0
2018-Apr-22 06:00N 47°36' W 122°20'0 0.0
2018-Apr-22 05:28N 47°36' W 122°20'2 5.4
2018-Apr-22 05:00N 47°36' W 122°24'5 8.5
2018-Apr-22 04:28N 47°33' W 122°29'0 0.0
2018-Apr-22 03:59N 47°33' W 122°29'0 0.0
2018-Apr-22 03:29N 47°33' W 122°29'0 0.0
2018-Apr-22 02:59N 47°33' W 122°29'0 0.0
2018-Apr-22 02:30N 47°33' W 122°29'0 0.0
2018-Apr-22 02:01N 47°33' W 122°29'510.6
2018-Apr-22 01:30N 47°36' W 122°23'2 3.2
2018-Apr-22 00:58N 47°36' W 122°20'0 0.0
2018-Apr-22 00:28N 47°36' W 122°20'0 0.0
2018-Apr-21 23:58N 47°36' W 122°20'0 0.0
2018-Apr-21 23:20N 47°36' W 122°20'0 0.0
2018-Apr-21 22:59N 47°36' W 122°20'0 0.0
2018-Apr-21 22:29N 47°36' W 122°20'0 0.0
2018-Apr-21 22:00N 47°36' W 122°20'0 0.0
2018-Apr-21 21:30N 47°36' W 122°20'0 0.0
2018-Apr-21 21:00N 47°36' W 122°20'0 0.0
2018-Apr-21 20:28N 47°36' W 122°20'0 0.0
2018-Apr-21 19:58N 47°36' W 122°20'0 0.0
2018-Apr-21 19:28N 47°36' W 122°20'0 0.0
2018-Apr-21 18:59N 47°36' W 122°20'0 0.0
2018-Apr-21 18:29N 47°36' W 122°20'0 0.0
2018-Apr-21 17:59N 47°36' W 122°20'0 0.0
2018-Apr-21 17:30N 47°36' W 122°20'0 0.0
2018-Apr-21 17:00N 47°36' W 122°20'0 0.0
2018-Apr-21 16:30N 47°36' W 122°20'0 0.0
2018-Apr-21 15:58N 47°36' W 122°20'0 0.0
2018-Apr-21 15:25N 47°36' W 122°20'0 0.0
2018-Apr-21 14:58N 47°36' W 122°20'0 0.0
2018-Apr-21 14:29N 47°36' W 122°20'0 0.0
2018-Apr-21 13:53N 47°36' W 122°20'0 0.0
2018-Apr-21 13:29N 47°36' W 122°20'0 0.0
2018-Apr-21 13:00N 47°36' W 122°20'0 0.0
2018-Apr-21 12:30N 47°36' W 122°20'0 0.0
2018-Apr-21 12:00N 47°36' W 122°20'0 0.0
2018-Apr-21 11:28N 47°36' W 122°20'0 0.0
2018-Apr-21 10:58N 47°36' W 122°20'0 0.0
2018-Apr-21 10:28N 47°36' W 122°20'0 0.0
2018-Apr-21 09:59N 47°36' W 122°20'0 0.0
2018-Apr-21 09:29N 47°36' W 122°20'0 0.0
2018-Apr-21 08:59N 47°36' W 122°20'0 0.0
2018-Apr-21 08:30N 47°36' W 122°20'0 0.0
2018-Apr-21 08:00N 47°36' W 122°20'0 0.0
2018-Apr-21 07:30N 47°36' W 122°20'0 0.0
2018-Apr-21 06:55N 47°36' W 122°20'0 0.0
2018-Apr-21 06:30N 47°36' W 122°20'1 2.9
2018-Apr-21 06:00N 47°35' W 122°21'1 1.6
2018-Apr-21 05:30N 47°35' W 122°22'2 4.2
2018-Apr-21 05:00N 47°35' W 122°25'3 5.0
2018-Apr-21 04:30N 47°37' W 122°25'2 4.2
2018-Apr-21 04:00N 47°37' W 122°22'1 2.7
2018-Apr-21 03:30N 47°36' W 122°20'0 0.0
2018-Apr-21 03:00N 47°36' W 122°20'0 0.0
2018-Apr-21 02:30N 47°36' W 122°20'0 0.0
2018-Apr-21 01:01N 47°36' W 122°20'0 0.0
2018-Apr-21 00:43N 47°36' W 122°20'0 0.0
2018-Apr-21 00:25N 47°36' W 122°20'0 0.0
2018-Apr-20 23:58N 47°36' W 122°20'0 0.0
2018-Apr-20 23:28N 47°36' W 122°20'0 0.0
2018-Apr-20 22:59N 47°36' W 122°20'0 0.0
2018-Apr-20 22:29N 47°36' W 122°20'0 0.0
2018-Apr-20 21:59N 47°36' W 122°20'0 0.0
2018-Apr-20 21:24N 47°36' W 122°20'0 0.0
2018-Apr-20 20:48N 47°36' W 122°20'0 0.0
2018-Apr-20 20:27N 47°36' W 122°20'0 0.0
2018-Apr-20 19:55N 47°36' W 122°20'0 0.0
2018-Apr-20 19:28N 47°36' W 122°20'0 0.0
2018-Apr-20 18:58N 47°36' W 122°20'0 0.0
2018-Apr-20 18:29N 47°36' W 122°20'0 0.0
2018-Apr-20 17:59N 47°36' W 122°20'0 0.0
2018-Apr-20 17:29N 47°36' W 122°20'0 0.0
2018-Apr-20 17:00N 47°36' W 122°20'0 0.0
2018-Apr-20 16:30N 47°36' W 122°20'0 0.0
2018-Apr-20 03:02N 47°36' W 122°20'0 0.0
2018-Apr-20 02:48N 47°36' W 122°20'0 0.0
2018-Apr-20 02:30N 47°36' W 122°20'0 0.0
2018-Apr-20 01:55N 47°36' W 122°20'0 0.0
2018-Apr-20 01:30N 47°36' W 122°20'1 1.8
2018-Apr-20 01:00N 47°35' W 122°21'1 2.3
2018-Apr-20 00:31N 47°37' W 122°21'1 1.1
2018-Apr-20 00:00N 47°36' W 122°20'0 0.0
2018-Apr-19 23:30N 47°36' W 122°20'0 0.0
2018-Apr-19 22:57N 47°36' W 122°20'0 0.0
2018-Apr-19 22:28N 47°36' W 122°20'0 0.1
2018-Apr-19 22:00N 47°36' W 122°21'1 2.3
2018-Apr-19 21:30N 47°37' W 122°22'0 0.8
2018-Apr-19 21:00N 47°37' W 122°22'1 1.6
2018-Apr-19 20:30N 47°36' W 122°20'0 0.0
2018-Apr-19 20:00N 47°36' W 122°20'0 0.0
2018-Apr-19 19:30N 47°36' W 122°20'0 0.0
2018-Apr-19 18:58N 47°36' W 122°20'0 0.0
2018-Apr-19 18:28N 47°36' W 122°20'0 0.0
2018-Apr-19 17:58N 47°36' W 122°20'0 0.0
2018-Apr-19 17:29N 47°36' W 122°20'0 0.0
2018-Apr-19 16:59N 47°36' W 122°20'0 0.0
2018-Apr-19 16:29N 47°36' W 122°20'0 0.0
2018-Apr-19 15:54N 47°36' W 122°20'0 0.0
2018-Apr-19 15:18N 47°36' W 122°20'0 0.0
2018-Apr-19 15:00N 47°36' W 122°20'0 0.0
2018-Apr-19 14:28N 47°36' W 122°20'0 0.0
2018-Apr-19 11:21N 47°36' W 122°20'0 0.0
2018-Apr-19 09:55N 47°36' W 122°20'0 0.0
2018-Apr-19 09:28N 47°36' W 122°20'0 0.0
2018-Apr-19 08:58N 47°36' W 122°20'0 0.0
2018-Apr-19 08:23N 47°36' W 122°20'0 0.0
2018-Apr-19 07:53N 47°36' W 122°20'0 0.0
2018-Apr-19 07:29N 47°36' W 122°20'0 0.0
2018-Apr-19 07:00N 47°36' W 122°20'0 0.0
2018-Apr-19 06:30N 47°36' W 122°20'0 0.0
2018-Apr-19 05:54N 47°36' W 122°20'0 0.0
2018-Apr-19 05:25N 47°36' W 122°20'0 0.0
2018-Apr-19 04:58N 47°36' W 122°20'0 0.0
2018-Apr-19 04:25N 47°36' W 122°20'0 0.0
2018-Apr-19 03:58N 47°36' W 122°20'0 0.0
2018-Apr-19 03:29N 47°36' W 122°20'0 0.0
2018-Apr-18 22:12N 47°36' W 122°20'1 3.0
2018-Apr-18 22:00N 47°37' W 122°21'5 9.7
2018-Apr-18 21:30N 47°40' W 122°26'2 4.1
2018-Apr-18 21:00N 47°40' W 122°23'3 5.7
2018-Apr-18 20:31N 47°38' W 122°20'0 0.8
2018-Apr-18 19:59N 47°38' W 122°20'0 0.0
2018-Apr-18 19:30N 47°38' W 122°20'0 0.0
2018-Apr-18 18:59N 47°38' W 122°20'0 0.0
2018-Apr-18 18:28N 47°38' W 122°20'0 0.0
2018-Apr-18 18:00N 47°38' W 122°20'0 0.0
2018-Apr-18 17:30N 47°38' W 122°20'0 0.0
2018-Apr-18 17:00N 47°38' W 122°20'0 0.0
2018-Apr-18 16:30N 47°38' W 122°20'0 0.0
2018-Apr-18 16:00N 47°38' W 122°20'0 0.0
2018-Apr-18 15:29N 47°38' W 122°20'0 0.0
2018-Apr-18 15:00N 47°38' W 122°20'0 0.0
2018-Apr-18 14:30N 47°38' W 122°20'0 0.0
2018-Apr-18 14:01N 47°38' W 122°20'0 0.0
2018-Apr-18 13:31N 47°38' W 122°20'0 0.0
2018-Apr-18 13:00N 47°38' W 122°20'0 0.0
2018-Apr-18 12:30N 47°38' W 122°20'0 0.0
2018-Apr-18 12:01N 47°38' W 122°20'0 0.0
2018-Apr-18 11:30N 47°38' W 122°20'0 0.0
2018-Apr-18 11:01N 47°38' W 122°20'0 0.0
2018-Apr-18 10:31N 47°38' W 122°20'0 0.0
2018-Apr-18 10:00N 47°38' W 122°20'0 0.0
2018-Apr-18 09:30N 47°38' W 122°20'0 0.0
2018-Apr-18 09:00N 47°38' W 122°20'0 0.0
2018-Apr-18 08:30N 47°38' W 122°20'0 0.0
2018-Apr-18 08:00N 47°38' W 122°20'0 0.0
2018-Apr-18 07:30N 47°38' W 122°20'0 0.0
2018-Apr-18 07:00N 47°38' W 122°20'0 0.0
2018-Apr-18 06:29N 47°38' W 122°20'0 0.0
2018-Apr-18 06:00N 47°38' W 122°20'0 0.0
2018-Apr-18 05:31N 47°38' W 122°20'0 0.0
2018-Apr-18 05:00N 47°38' W 122°20'0 0.0
2018-Apr-18 04:30N 47°38' W 122°20'0 0.0
2018-Apr-18 04:00N 47°38' W 122°20'0 0.0
2018-Apr-18 03:31N 47°38' W 122°20'0 0.0
2018-Apr-18 03:00N 47°38' W 122°20'0 0.0
2018-Apr-18 02:30N 47°38' W 122°20'0 0.0
2018-Apr-18 02:00N 47°38' W 122°20'0 0.0
2018-Apr-18 01:30N 47°38' W 122°20'0 0.0
2018-Apr-18 01:00N 47°38' W 122°20'0 0.0
2018-Apr-18 00:30N 47°38' W 122°20'0 0.0
2018-Apr-18 00:01N 47°38' W 122°20'0 0.0
2018-Apr-17 23:30N 47°38' W 122°20'0 0.0
2018-Apr-17 23:00N 47°38' W 122°20'0 0.0
2018-Apr-17 22:30N 47°38' W 122°20'0 0.0
2018-Apr-17 22:00N 47°38' W 122°20'1 1.3
2018-Apr-17 21:30N 47°38' W 122°20'3 6.0
2018-Apr-17 21:00N 47°40' W 122°24'1 2.2
2018-Apr-17 20:31N 47°41' W 122°25'4 7.6
2018-Apr-17 20:00N 47°37' W 122°23'2 0.1
2018-Apr-17 08:15N 47°36' W 122°20'0 0.0
2018-Apr-17 07:57N 47°36' W 122°20'0 0.0
2018-Apr-16 10:02N 47°36' W 122°20'0 0.0
2018-Apr-16 09:56N 47°36' W 122°20'0 0.0
2018-Apr-16 05:29N 47°36' W 122°20'0 0.0
2018-Apr-15 23:00N 47°36' W 122°20'0 0.1
2018-Apr-15 22:28N 47°36' W 122°21'5 9.9
2018-Apr-15 22:00N 47°34' W 122°26'2 4.6
2018-Apr-15 21:30N 47°33' W 122°29'0 0.0
2018-Apr-15 21:00N 47°33' W 122°29'0 0.0
2018-Apr-15 20:30N 47°33' W 122°29'0 0.0
2018-Apr-15 20:00N 47°33' W 122°29'0 0.0
2018-Apr-15 19:30N 47°33' W 122°29'2 4.6
2018-Apr-15 19:00N 47°34' W 122°27'5 3.4
2018-Apr-15 17:39N 47°36' W 122°20'1 7.4
2018-Apr-15 17:30N 47°36' W 122°22'510.8
2018-Apr-15 17:00N 47°33' W 122°28'2 3.8
2018-Apr-15 16:30N 47°34' W 122°26'4 0.4
2018-Apr-15 05:44N 47°36' W 122°21'210.1
2018-Apr-15 05:30N 47°36' W 122°24'5 9.1
2018-Apr-15 05:01N 47°33' W 122°29'1 2.4
2018-Apr-15 04:30N 47°33' W 122°28'510.2
2018-Apr-15 04:01N 47°36' W 122°21'2 3.2
2018-Apr-15 03:31N 47°36' W 122°24'5 9.5
2018-Apr-15 03:00N 47°33' W 122°29'0 0.4
2018-Apr-15 02:31N 47°33' W 122°29'4 8.7
2018-Apr-15 02:00N 47°36' W 122°24'2 4.3
2018-Apr-15 01:27N 47°36' W 122°21'510.9
2018-Apr-15 01:01N 47°34' W 122°27'2 3.6
2018-Apr-15 00:30N 47°33' W 122°29'3 6.7
2018-Apr-15 00:00N 47°35' W 122°25'3 0.2
2018-Apr-14 05:13N 47°36' W 122°20'0 0.0
2018-Apr-14 04:52N 47°36' W 122°20'0 0.0
2018-Apr-14 04:29N 47°36' W 122°20'0 0.0
2018-Apr-14 03:59N 47°36' W 122°20'0 0.0
2018-Apr-14 03:29N 47°36' W 122°20'0 0.0
2018-Apr-14 03:00N 47°36' W 122°20'0 0.0
2018-Apr-14 02:30N 47°36' W 122°20'0 0.0
2018-Apr-14 02:00N 47°36' W 122°20'0 0.0
2018-Apr-14 01:30N 47°36' W 122°20'0 0.0
2018-Apr-14 00:58N 47°36' W 122°20'0 0.0
2018-Apr-14 00:25N 47°36' W 122°20'0 0.0
2018-Apr-13 23:59N 47°36' W 122°20'0 0.0
2018-Apr-13 23:29N 47°36' W 122°20'0 0.0
2018-Apr-13 22:59N 47°36' W 122°20'0 0.0
2018-Apr-13 22:29N 47°36' W 122°20'0 0.0
2018-Apr-13 22:00N 47°36' W 122°20'0 0.0
2018-Apr-13 21:30N 47°36' W 122°20'0 0.7
2018-Apr-13 21:00N 47°36' W 122°21'  
Track history (hours):
 
Tides and Currents Weather Stations Pressure Air Temp Water Temp Dewpoint Dewpoint Depression Visibility Wind Speed Wind Dir Waves Ship Positions

Goodtime II

Owner: Argosy Limited Partnership, SEATTLE, WA. More information available from US FCC via Universal Licensing System and Coast Guard Vessel Documentation Center.

Last reported at 2018-Apr-23 20:59 UTC. Time now 2018-Apr-23 21:27 UTC.
Position N 47°36' W 122°20'.

Length 25 m; draft 2 m.

Type: Passenger vessel. MMSI: 367013040.

Date/timePositionNaut miles runAvg speedWind from/ knotsBaromVisibWave heightAir tempDewpointWater temp
2018-Apr-23 20:59N 47°36' W 122°20'0 0.0
2018-Apr-23 20:29N 47°36' W 122°20'0 0.0
2018-Apr-23 19:59N 47°36' W 122°20'0 0.0
2018-Apr-23 19:30N 47°36' W 122°20'0 0.0
2018-Apr-23 19:00N 47°36' W 122°20'0 0.0
2018-Apr-23 18:30N 47°36' W 122°20'0 0.0
2018-Apr-23 18:00N 47°36' W 122°20'0 0.0
2018-Apr-23 17:28N 47°36' W 122°20'0 0.0
2018-Apr-23 16:58N 47°36' W 122°20'0 0.0
2018-Apr-23 15:41N 47°36' W 122°20'0 0.0
2018-Apr-23 15:29N 47°36' W 122°20'0 0.0
2018-Apr-23 14:59N 47°36' W 122°20'0 0.0
2018-Apr-23 14:27N 47°36' W 122°20'0 0.0
2018-Apr-23 14:00N 47°36' W 122°20'0 0.0
2018-Apr-23 13:10N 47°36' W 122°20'0 0.0
2018-Apr-23 12:58N 47°36' W 122°20'0 0.0
2018-Apr-23 12:28N 47°36' W 122°20'0 0.0
2018-Apr-23 11:58N 47°36' W 122°20'0 0.0
2018-Apr-23 11:29N 47°36' W 122°20'0 0.0
2018-Apr-23 10:53N 47°36' W 122°20'0 0.0
2018-Apr-23 10:29N 47°36' W 122°20'0 0.0
2018-Apr-23 10:00N 47°36' W 122°20'0 0.0
2018-Apr-23 09:30N 47°36' W 122°20'0 0.0
2018-Apr-23 09:00N 47°36' W 122°20'0 0.0
2018-Apr-23 08:28N 47°36' W 122°20'0 0.0
2018-Apr-23 07:58N 47°36' W 122°20'0 0.0
2018-Apr-23 07:28N 47°36' W 122°20'0 0.0
2018-Apr-23 06:59N 47°36' W 122°20'0 0.0
2018-Apr-23 06:29N 47°36' W 122°20'0 0.0
2018-Apr-23 05:59N 47°36' W 122°20'0 0.0
2018-Apr-23 05:30N 47°36' W 122°20'0 0.0
2018-Apr-23 04:57N 47°36' W 122°20'0 0.0
2018-Apr-23 04:28N 47°36' W 122°20'0 0.0
2018-Apr-23 03:58N 47°36' W 122°20'0 0.0
2018-Apr-23 03:25N 47°36' W 122°20'0 0.0
2018-Apr-23 02:58N 47°36' W 122°20'0 0.0
2018-Apr-23 02:29N 47°36' W 122°20'0 0.0
2018-Apr-23 01:59N 47°36' W 122°20'0 0.0
2018-Apr-23 01:24N 47°36' W 122°20'0 0.0
2018-Apr-23 00:54N 47°36' W 122°20'0 0.0
2018-Apr-23 00:27N 47°36' W 122°20'0 0.0
2018-Apr-23 00:00N 47°36' W 122°20'0 0.0
2018-Apr-22 23:25N 47°36' W 122°20'0 0.0
2018-Apr-22 22:55N 47°36' W 122°20'0 0.3
2018-Apr-22 22:30N 47°36' W 122°21'510.1
2018-Apr-22 22:00N 47°34' W 122°27'2 3.5
2018-Apr-22 21:30N 47°33' W 122°29'0 0.0
2018-Apr-22 20:58N 47°33' W 122°29'0 0.0
2018-Apr-22 20:28N 47°33' W 122°29'0 0.0
2018-Apr-22 19:58N 47°33' W 122°29'0 0.0
2018-Apr-22 19:29N 47°33' W 122°29'3 6.8
2018-Apr-22 19:00N 47°35' W 122°25'4 7.4
2018-Apr-22 18:30N 47°36' W 122°20'0 0.0
2018-Apr-22 17:58N 47°36' W 122°20'1 1.9
2018-Apr-22 17:30N 47°36' W 122°22'510.2
2018-Apr-22 17:00N 47°33' W 122°28'1 2.1
2018-Apr-22 16:30N 47°34' W 122°27'5 9.5
2018-Apr-22 16:00N 47°36' W 122°20'0 0.0
2018-Apr-22 15:30N 47°36' W 122°20'0 0.0
2018-Apr-22 15:00N 47°36' W 122°20'0 0.0
2018-Apr-22 14:28N 47°36' W 122°20'0 0.0
2018-Apr-22 13:52N 47°36' W 122°20'0 0.0
2018-Apr-22 13:28N 47°36' W 122°20'0 0.0
2018-Apr-22 12:59N 47°36' W 122°20'0 0.0
2018-Apr-22 12:29N 47°36' W 122°20'0 0.0
2018-Apr-22 11:59N 47°36' W 122°20'0 0.0
2018-Apr-22 11:30N 47°36' W 122°20'0 0.0
2018-Apr-22 11:00N 47°36' W 122°20'0 0.0
2018-Apr-22 10:30N 47°36' W 122°20'0 0.0
2018-Apr-22 09:55N 47°36' W 122°20'0 0.0
2018-Apr-22 09:28N 47°36' W 122°20'0 0.0
2018-Apr-22 08:58N 47°36' W 122°20'0 0.0
2018-Apr-22 08:29N 47°36' W 122°20'0 0.0
2018-Apr-22 07:59N 47°36' W 122°20'0 0.0
2018-Apr-22 07:29N 47°36' W 122°20'0 0.0
2018-Apr-22 07:00N 47°36' W 122°20'0 0.0
2018-Apr-22 06:27N 47°36' W 122°20'0 0.0
2018-Apr-22 06:00N 47°36' W 122°20'0 0.0
2018-Apr-22 05:28N 47°36' W 122°20'2 5.4
2018-Apr-22 05:00N 47°36' W 122°24'5 8.5
2018-Apr-22 04:28N 47°33' W 122°29'0 0.0
2018-Apr-22 03:59N 47°33' W 122°29'0 0.0
2018-Apr-22 03:29N 47°33' W 122°29'0 0.0
2018-Apr-22 02:59N 47°33' W 122°29'0 0.0
2018-Apr-22 02:30N 47°33' W 122°29'0 0.0
2018-Apr-22 02:01N 47°33' W 122°29'510.6
2018-Apr-22 01:30N 47°36' W 122°23'2 3.2
2018-Apr-22 00:58N 47°36' W 122°20'0 0.0
2018-Apr-22 00:28N 47°36' W 122°20'0 0.0
2018-Apr-21 23:58N 47°36' W 122°20'0 0.0
2018-Apr-21 23:20N 47°36' W 122°20'0 0.0
2018-Apr-21 22:59N 47°36' W 122°20'0 0.0
2018-Apr-21 22:29N 47°36' W 122°20'0 0.0
2018-Apr-21 22:00N 47°36' W 122°20'0 0.0
2018-Apr-21 21:30N 47°36' W 122°20'0 0.0
2018-Apr-21 21:00N 47°36' W 122°20'0 0.0
2018-Apr-21 20:28N 47°36' W 122°20'0 0.0
2018-Apr-21 19:58N 47°36' W 122°20'0 0.0
2018-Apr-21 19:28N 47°36' W 122°20'0 0.0
2018-Apr-21 18:59N 47°36' W 122°20'0 0.0
2018-Apr-21 18:29N 47°36' W 122°20'0 0.0
2018-Apr-21 17:59N 47°36' W 122°20'0 0.0
2018-Apr-21 17:30N 47°36' W 122°20'0 0.0
2018-Apr-21 17:00N 47°36' W 122°20'0 0.0
2018-Apr-21 16:30N 47°36' W 122°20'0 0.0
2018-Apr-21 15:58N 47°36' W 122°20'0 0.0
2018-Apr-21 15:25N 47°36' W 122°20'0 0.0
2018-Apr-21 14:58N 47°36' W 122°20'0 0.0
2018-Apr-21 14:29N 47°36' W 122°20'0 0.0
2018-Apr-21 13:53N 47°36' W 122°20'0 0.0
2018-Apr-21 13:29N 47°36' W 122°20'0 0.0
2018-Apr-21 13:00N 47°36' W 122°20'0 0.0
2018-Apr-21 12:30N 47°36' W 122°20'0 0.0
2018-Apr-21 12:00N 47°36' W 122°20'0 0.0
2018-Apr-21 11:28N 47°36' W 122°20'0 0.0
2018-Apr-21 10:58N 47°36' W 122°20'0 0.0
2018-Apr-21 10:28N 47°36' W 122°20'0 0.0
2018-Apr-21 09:59N 47°36' W 122°20'0 0.0
2018-Apr-21 09:29N 47°36' W 122°20'0 0.0
2018-Apr-21 08:59N 47°36' W 122°20'0 0.0
2018-Apr-21 08:30N 47°36' W 122°20'0 0.0
2018-Apr-21 08:00N 47°36' W 122°20'0 0.0
2018-Apr-21 07:30N 47°36' W 122°20'0 0.0
2018-Apr-21 06:55N 47°36' W 122°20'0 0.0
2018-Apr-21 06:30N 47°36' W 122°20'1 2.9
2018-Apr-21 06:00N 47°35' W 122°21'1 1.6
2018-Apr-21 05:30N 47°35' W 122°22'2 4.2
2018-Apr-21 05:00N 47°35' W 122°25'3 5.0
2018-Apr-21 04:30N 47°37' W 122°25'2 4.2
2018-Apr-21 04:00N 47°37' W 122°22'1 2.7
2018-Apr-21 03:30N 47°36' W 122°20'0 0.0
2018-Apr-21 03:00N 47°36' W 122°20'0 0.0
2018-Apr-21 02:30N 47°36' W 122°20'0 0.0
2018-Apr-21 01:01N 47°36' W 122°20'0 0.0
2018-Apr-21 00:43N 47°36' W 122°20'0 0.0
2018-Apr-21 00:25N 47°36' W 122°20'0 0.0
2018-Apr-20 23:58N 47°36' W 122°20'0 0.0
2018-Apr-20 23:28N 47°36' W 122°20'0 0.0
2018-Apr-20 22:59N 47°36' W 122°20'0 0.0
2018-Apr-20 22:29N 47°36' W 122°20'0 0.0
2018-Apr-20 21:59N 47°36' W 122°20'0 0.0
2018-Apr-20 21:24N 47°36' W 122°20'0 0.0
2018-Apr-20 20:48N 47°36' W 122°20'0 0.0
2018-Apr-20 20:27N 47°36' W 122°20'0 0.0
2018-Apr-20 19:55N 47°36' W 122°20'0 0.0
2018-Apr-20 19:28N 47°36' W 122°20'0 0.0
2018-Apr-20 18:58N 47°36' W 122°20'0 0.0
2018-Apr-20 18:29N 47°36' W 122°20'0 0.0
2018-Apr-20 17:59N 47°36' W 122°20'0 0.0
2018-Apr-20 17:29N 47°36' W 122°20'0 0.0
2018-Apr-20 17:00N 47°36' W 122°20'0 0.0
2018-Apr-20 16:30N 47°36' W 122°20'0 0.0
2018-Apr-20 03:02N 47°36' W 122°20'0 0.0
2018-Apr-20 02:48N 47°36' W 122°20'0 0.0
2018-Apr-20 02:30N 47°36' W 122°20'0 0.0
2018-Apr-20 01:55N 47°36' W 122°20'0 0.0
2018-Apr-20 01:30N 47°36' W 122°20'1 1.8
2018-Apr-20 01:00N 47°35' W 122°21'1 2.3
2018-Apr-20 00:31N 47°37' W 122°21'1 1.1
2018-Apr-20 00:00N 47°36' W 122°20'0 0.0
2018-Apr-19 23:30N 47°36' W 122°20'0 0.0
2018-Apr-19 22:57N 47°36' W 122°20'0 0.0
2018-Apr-19 22:28N 47°36' W 122°20'0 0.1
2018-Apr-19 22:00N 47°36' W 122°21'1 2.3
2018-Apr-19 21:30N 47°37' W 122°22'0 0.8
2018-Apr-19 21:00N 47°37' W 122°22'1 1.6
2018-Apr-19 20:30N 47°36' W 122°20'0 0.0
2018-Apr-19 20:00N 47°36' W 122°20'0 0.0
2018-Apr-19 19:30N 47°36' W 122°20'0 0.0
2018-Apr-19 18:58N 47°36' W 122°20'0 0.0
2018-Apr-19 18:28N 47°36' W 122°20'0 0.0
2018-Apr-19 17:58N 47°36' W 122°20'0 0.0
2018-Apr-19 17:29N 47°36' W 122°20'0 0.0
2018-Apr-19 16:59N 47°36' W 122°20'0 0.0
2018-Apr-19 16:29N 47°36' W 122°20'0 0.0
2018-Apr-19 15:54N 47°36' W 122°20'0 0.0
2018-Apr-19 15:18N 47°36' W 122°20'0 0.0
2018-Apr-19 15:00N 47°36' W 122°20'0 0.0
2018-Apr-19 14:28N 47°36' W 122°20'0 0.0
2018-Apr-19 11:21N 47°36' W 122°20'0 0.0
2018-Apr-19 09:55N 47°36' W 122°20'0 0.0
2018-Apr-19 09:28N 47°36' W 122°20'0 0.0
2018-Apr-19 08:58N 47°36' W 122°20'0 0.0
2018-Apr-19 08:23N 47°36' W 122°20'0 0.0
2018-Apr-19 07:53N 47°36' W 122°20'0 0.0
2018-Apr-19 07:29N 47°36' W 122°20'0 0.0
2018-Apr-19 07:00N 47°36' W 122°20'0 0.0
2018-Apr-19 06:30N 47°36' W 122°20'0 0.0
2018-Apr-19 05:54N 47°36' W 122°20'0 0.0
2018-Apr-19 05:25N 47°36' W 122°20'0 0.0
2018-Apr-19 04:58N 47°36' W 122°20'0 0.0
2018-Apr-19 04:25N 47°36' W 122°20'0 0.0
2018-Apr-19 03:58N 47°36' W 122°20'0 0.0
2018-Apr-19 03:29N 47°36' W 122°20'0 0.0
2018-Apr-18 22:12N 47°36' W 122°20'1 3.0
2018-Apr-18 22:00N 47°37' W 122°21'5 9.7
2018-Apr-18 21:30N 47°40' W 122°26'2 4.1
2018-Apr-18 21:00N 47°40' W 122°23'3 5.7
2018-Apr-18 20:31N 47°38' W 122°20'0 0.8
2018-Apr-18 19:59N 47°38' W 122°20'0 0.0
2018-Apr-18 19:30N 47°38' W 122°20'0 0.0
2018-Apr-18 18:59N 47°38' W 122°20'0 0.0
2018-Apr-18 18:28N 47°38' W 122°20'0 0.0
2018-Apr-18 18:00N 47°38' W 122°20'0 0.0
2018-Apr-18 17:30N 47°38' W 122°20'0 0.0
2018-Apr-18 17:00N 47°38' W 122°20'0 0.0
2018-Apr-18 16:30N 47°38' W 122°20'0 0.0
2018-Apr-18 16:00N 47°38' W 122°20'0 0.0
2018-Apr-18 15:29N 47°38' W 122°20'0 0.0
2018-Apr-18 15:00N 47°38' W 122°20'0 0.0
2018-Apr-18 14:30N 47°38' W 122°20'0 0.0
2018-Apr-18 14:01N 47°38' W 122°20'0 0.0
2018-Apr-18 13:31N 47°38' W 122°20'0 0.0
2018-Apr-18 13:00N 47°38' W 122°20'0 0.0
2018-Apr-18 12:30N 47°38' W 122°20'0 0.0
2018-Apr-18 12:01N 47°38' W 122°20'0 0.0
2018-Apr-18 11:30N 47°38' W 122°20'0 0.0
2018-Apr-18 11:01N 47°38' W 122°20'0 0.0
2018-Apr-18 10:31N 47°38' W 122°20'0 0.0
2018-Apr-18 10:00N 47°38' W 122°20'0 0.0
2018-Apr-18 09:30N 47°38' W 122°20'0 0.0
2018-Apr-18 09:00N 47°38' W 122°20'0 0.0
2018-Apr-18 08:30N 47°38' W 122°20'0 0.0
2018-Apr-18 08:00N 47°38' W 122°20'0 0.0
2018-Apr-18 07:30N 47°38' W 122°20'0 0.0
2018-Apr-18 07:00N 47°38' W 122°20'0 0.0
2018-Apr-18 06:29N 47°38' W 122°20'0 0.0
2018-Apr-18 06:00N 47°38' W 122°20'0 0.0
2018-Apr-18 05:31N 47°38' W 122°20'0 0.0
2018-Apr-18 05:00N 47°38' W 122°20'0 0.0
2018-Apr-18 04:30N 47°38' W 122°20'0 0.0
2018-Apr-18 04:00N 47°38' W 122°20'0 0.0
2018-Apr-18 03:31N 47°38' W 122°20'0 0.0
2018-Apr-18 03:00N 47°38' W 122°20'0 0.0
2018-Apr-18 02:30N 47°38' W 122°20'0 0.0
2018-Apr-18 02:00N 47°38' W 122°20'0 0.0
2018-Apr-18 01:30N 47°38' W 122°20'0 0.0
2018-Apr-18 01:00N 47°38' W 122°20'0 0.0
2018-Apr-18 00:30N 47°38' W 122°20'0 0.0
2018-Apr-18 00:01N 47°38' W 122°20'0 0.0
2018-Apr-17 23:30N 47°38' W 122°20'0 0.0
2018-Apr-17 23:00N 47°38' W 122°20'0 0.0
2018-Apr-17 22:30N 47°38' W 122°20'0 0.0
2018-Apr-17 22:00N 47°38' W 122°20'1 1.3
2018-Apr-17 21:30N 47°38' W 122°20'3 6.0
2018-Apr-17 21:00N 47°40' W 122°24'1 2.2
2018-Apr-17 20:31N 47°41' W 122°25'4 7.6
2018-Apr-17 20:00N 47°37' W 122°23'2 0.1
2018-Apr-17 08:15N 47°36' W 122°20'0 0.0
2018-Apr-17 07:57N 47°36' W 122°20'0 0.0
2018-Apr-16 10:02N 47°36' W 122°20'0 0.0
2018-Apr-16 09:56N 47°36' W 122°20'0 0.0
2018-Apr-16 05:29N 47°36' W 122°20'0 0.0
2018-Apr-15 23:00N 47°36' W 122°20'0 0.1
2018-Apr-15 22:28N 47°36' W 122°21'5 9.9
2018-Apr-15 22:00N 47°34' W 122°26'2 4.6
2018-Apr-15 21:30N 47°33' W 122°29'0 0.0
2018-Apr-15 21:00N 47°33' W 122°29'0 0.0
2018-Apr-15 20:30N 47°33' W 122°29'0 0.0
2018-Apr-15 20:00N 47°33' W 122°29'0 0.0
2018-Apr-15 19:30N 47°33' W 122°29'2 4.6
2018-Apr-15 19:00N 47°34' W 122°27'5 3.4
2018-Apr-15 17:39N 47°36' W 122°20'1 7.4
2018-Apr-15 17:30N 47°36' W 122°22'510.8
2018-Apr-15 17:00N 47°33' W 122°28'2 3.8
2018-Apr-15 16:30N 47°34' W 122°26'4 0.4
2018-Apr-15 05:44N 47°36' W 122°21'210.1
2018-Apr-15 05:30N 47°36' W 122°24'5 9.1
2018-Apr-15 05:01N 47°33' W 122°29'1 2.4
2018-Apr-15 04:30N 47°33' W 122°28'510.2
2018-Apr-15 04:01N 47°36' W 122°21'2 3.2
2018-Apr-15 03:31N 47°36' W 122°24'5 9.5
2018-Apr-15 03:00N 47°33' W 122°29'0 0.4
2018-Apr-15 02:31N 47°33' W 122°29'4 8.7
2018-Apr-15 02:00N 47°36' W 122°24'2 4.3
2018-Apr-15 01:27N 47°36' W 122°21'510.9
2018-Apr-15 01:01N 47°34' W 122°27'2 3.6
2018-Apr-15 00:30N 47°33' W 122°29'3 6.7
2018-Apr-15 00:00N 47°35' W 122°25'3 0.2
2018-Apr-14 05:13N 47°36' W 122°20'0 0.0
2018-Apr-14 04:52N 47°36' W 122°20'0 0.0
2018-Apr-14 04:29N 47°36' W 122°20'0 0.0
2018-Apr-14 03:59N 47°36' W 122°20'0 0.0
2018-Apr-14 03:29N 47°36' W 122°20'0 0.0
2018-Apr-14 03:00N 47°36' W 122°20'0 0.0
2018-Apr-14 02:30N 47°36' W 122°20'0 0.0
2018-Apr-14 02:00N 47°36' W 122°20'0 0.0
2018-Apr-14 01:30N 47°36' W 122°20'0 0.0
2018-Apr-14 00:58N 47°36' W 122°20'0 0.0
2018-Apr-14 00:25N 47°36' W 122°20'0 0.0
2018-Apr-13 23:59N 47°36' W 122°20'0 0.0
2018-Apr-13 23:29N 47°36' W 122°20'0 0.0
2018-Apr-13 22:59N 47°36' W 122°20'0 0.0
2018-Apr-13 22:29N 47°36' W 122°20'0 0.0
2018-Apr-13 22:00N 47°36' W 122°20'0 0.0
2018-Apr-13 21:30N 47°36' W 122°20'0 0.7
2018-Apr-13 21:00N 47°36' W 122°21'  

Dump ship's entire track history